Terminal Aerodrome Forecast
Issued by NWS Caribou, ME

Home | Current Version | Previous Version | Text Only | Print | Product List | Glossary On
Versions: 1 2 3 4 5 6 7 8 9 10 11 12 13 14 15 16
000
FTUS41 KCAR 250004 AAA
TAFBGR
TAF AMD
KBGR 250004Z 2500/2524 25005KT P6SM BKN080
     FM250800 VRB03KT P6SM SCT090
     FM251200 23006KT P6SM FEW100
     FM251600 24010G18KT P6SM FEW100
     FM252200 21008KT P6SM BKN045=

USA.gov is the U.S. government's official web portal to all federal, state and local government web resources and services.